createdAt,value
2023-05-14T00:00:48.812Z,0.00
2023-05-14T00:01:48.992Z,0.00
2023-05-14T00:02:49.213Z,0.00
2023-05-14T00:03:49.335Z,0.00
2023-05-14T00:04:49.380Z,0.00
2023-05-14T00:05:49.455Z,0.00
2023-05-14T00:06:49.619Z,0.00
2023-05-14T00:07:49.805Z,0.00
2023-05-14T00:08:49.885Z,0.00
2023-05-14T00:09:50.000Z,0.00
2023-05-14T00:10:50.170Z,0.00
2023-05-14T00:11:50.290Z,0.00
2023-05-14T00:12:50.502Z,0.00
2023-05-14T00:13:50.445Z,0.00
2023-05-14T00:14:50.559Z,0.00
2023-05-14T00:15:50.840Z,0.00
2023-05-14T00:16:50.978Z,0.00
2023-05-14T00:17:51.003Z,0.00
2023-05-14T00:18:51.118Z,0.00
2023-05-14T00:19:51.222Z,0.00
2023-05-14T00:20:51.349Z,0.00
2023-05-14T00:21:51.612Z,0.00
2023-05-14T00:22:51.617Z,0.00
2023-05-14T00:23:51.785Z,0.00
2023-05-14T00:24:51.838Z,0.00
2023-05-14T00:25:51.985Z,0.00
2023-05-14T00:26:52.179Z,0.00
2023-05-14T00:27:52.306Z,0.00
2023-05-14T00:28:52.492Z,0.00
2023-05-14T00:29:52.558Z,0.00
2023-05-14T00:30:52.716Z,0.00
2023-05-14T00:31:53.051Z,0.00
2023-05-14T00:32:53.065Z,0.00
2023-05-14T00:33:53.105Z,0.00
2023-05-14T00:34:53.164Z,0.00
2023-05-14T00:35:53.297Z,0.00
2023-05-14T00:36:53.448Z,0.00
2023-05-14T00:37:53.573Z,0.00
2023-05-14T00:38:53.809Z,0.00
2023-05-14T00:39:53.929Z,0.00
2023-05-14T00:40:54.029Z,0.00
2023-05-14T00:41:54.136Z,0.00
2023-05-14T00:42:54.266Z,0.00
2023-05-14T00:43:54.422Z,0.00
2023-05-14T00:44:54.560Z,0.00
2023-05-14T00:45:54.627Z,0.00
2023-05-14T00:46:54.873Z,0.00
2023-05-14T00:47:54.959Z,0.00
2023-05-14T00:48:55.038Z,0.00
2023-05-14T00:49:55.186Z,0.00
2023-05-14T00:50:55.284Z,0.00
2023-05-14T00:51:55.385Z,0.00
2023-05-14T00:52:55.574Z,0.00
2023-05-14T00:53:55.717Z,0.00
2023-05-14T00:54:55.851Z,0.00
2023-05-14T00:55:55.898Z,0.00
2023-05-14T00:56:56.041Z,0.00
2023-05-14T00:57:56.171Z,0.00
2023-05-14T00:58:56.329Z,0.00
2023-05-14T00:59:56.486Z,0.00
2023-05-14T01:00:56.760Z,0.00
2023-05-14T01:01:56.762Z,0.00
2023-05-14T01:02:56.950Z,0.00
2023-05-14T01:03:57.096Z,0.00
2023-05-14T01:04:57.153Z,0.00
2023-05-14T01:05:57.341Z,0.00
2023-05-14T01:06:57.412Z,0.00
2023-05-14T01:07:57.612Z,0.00
2023-05-14T01:08:57.671Z,0.00
2023-05-14T01:09:57.873Z,0.00
2023-05-14T01:10:57.925Z,0.00
2023-05-14T01:11:58.014Z,0.00
2023-05-14T01:12:58.249Z,0.00
2023-05-14T01:13:58.297Z,0.00
2023-05-14T01:14:58.551Z,0.00
2023-05-14T01:15:58.668Z,0.00
2023-05-14T01:16:58.758Z,0.00
2023-05-14T01:17:58.896Z,0.00
2023-05-14T01:18:58.941Z,0.00
2023-05-14T01:19:59.047Z,0.00
2023-05-14T01:20:59.160Z,0.00
2023-05-14T01:21:59.359Z,0.00
2023-05-14T01:22:59.524Z,0.00
2023-05-14T01:23:59.578Z,0.00
2023-05-14T01:24:59.665Z,0.00
2023-05-14T01:25:59.870Z,0.00
2023-05-14T01:26:59.930Z,0.00
2023-05-14T01:28:00.100Z,0.00
2023-05-14T01:29:00.264Z,0.00
2023-05-14T01:30:00.391Z,0.00
2023-05-14T01:31:00.513Z,0.00
2023-05-14T01:32:00.721Z,0.00
2023-05-14T01:33:00.792Z,0.00
2023-05-14T01:34:00.964Z,0.00
2023-05-14T01:35:01.096Z,0.00
2023-05-14T01:36:01.270Z,0.00
2023-05-14T01:37:01.301Z,0.00
2023-05-14T01:38:01.447Z,0.00
2023-05-14T01:39:01.639Z,0.00
2023-05-14T01:40:01.825Z,0.00
2023-05-14T01:41:01.915Z,0.00
2023-05-14T01:42:02.051Z,0.00
2023-05-14T01:43:02.282Z,0.00
2023-05-14T01:44:02.247Z,0.00
2023-05-14T01:45:02.409Z,0.00
2023-05-14T01:46:02.711Z,0.00
2023-05-14T01:47:02.762Z,0.00
2023-05-14T01:48:02.826Z,0.00
2023-05-14T01:49:02.886Z,0.00
2023-05-14T01:50:03.002Z,0.00
2023-05-14T01:51:03.153Z,0.00
2023-05-14T01:52:03.228Z,0.00
2023-05-14T01:53:03.426Z,0.00
2023-05-14T01:54:03.545Z,0.00
2023-05-14T01:55:03.744Z,0.00
2023-05-14T01:56:03.790Z,0.00
2023-05-14T01:57:03.916Z,0.00
2023-05-14T01:58:04.077Z,0.00
2023-05-14T01:59:04.204Z,0.00
2023-05-14T02:00:04.295Z,0.00
2023-05-14T02:01:04.508Z,0.00
2023-05-14T02:02:04.612Z,0.00
2023-05-14T02:03:04.759Z,0.00
2023-05-14T02:04:04.889Z,0.00
2023-05-14T02:05:06.946Z,0.00
2023-05-14T02:06:05.089Z,0.00
2023-05-14T02:07:05.236Z,0.00
2023-05-14T02:08:05.339Z,0.00
2023-05-14T02:09:05.441Z,0.00
2023-05-14T02:10:05.504Z,0.00
2023-05-14T02:11:05.668Z,0.00
2023-05-14T02:12:05.787Z,0.00
2023-05-14T02:13:05.920Z,0.00
2023-05-14T02:14:06.144Z,0.00
2023-05-14T02:15:06.199Z,0.00
2023-05-14T02:16:06.399Z,0.00
2023-05-14T02:17:06.439Z,0.00
2023-05-14T02:18:06.598Z,0.00
2023-05-14T02:19:06.680Z,0.00
2023-05-14T02:20:06.917Z,0.00
2023-05-14T02:21:06.920Z,0.00
2023-05-14T02:22:07.148Z,0.00
2023-05-14T02:23:07.208Z,0.00
2023-05-14T02:24:07.354Z,0.00
2023-05-14T02:25:07.537Z,0.00
2023-05-14T02:26:07.999Z,0.00
2023-05-14T02:27:07.687Z,0.00
2023-05-14T02:28:07.826Z,0.00
2023-05-14T02:29:07.989Z,0.00
2023-05-14T02:30:08.113Z,0.00
2023-05-14T02:31:08.355Z,0.00
2023-05-14T02:32:08.429Z,0.00
2023-05-14T02:33:08.577Z,0.00
2023-05-14T02:34:08.660Z,0.00
2023-05-14T02:35:08.762Z,0.00
2023-05-14T02:36:08.915Z,0.00
2023-05-14T02:37:09.045Z,0.00
2023-05-14T02:38:09.186Z,0.00
2023-05-14T02:39:09.393Z,0.00
2023-05-14T02:40:09.441Z,0.00
2023-05-14T02:41:09.500Z,0.00
2023-05-14T02:42:09.712Z,0.00
2023-05-14T02:43:09.806Z,0.00
2023-05-14T02:44:09.909Z,0.00
2023-05-14T02:45:10.058Z,0.00
2023-05-14T02:46:10.160Z,0.00
2023-05-14T02:47:10.414Z,0.00
2023-05-14T02:48:10.470Z,0.00
2023-05-14T02:49:10.550Z,0.00
2023-05-14T02:50:10.747Z,0.00
2023-05-14T02:51:10.748Z,0.00
2023-05-14T02:52:11.006Z,0.00
2023-05-14T02:53:11.111Z,0.00
2023-05-14T02:54:11.238Z,0.00
2023-05-14T02:55:11.291Z,0.00
2023-05-14T02:56:11.369Z,0.00
2023-05-14T02:57:11.538Z,0.00
2023-05-14T02:58:11.737Z,0.00
2023-05-14T02:59:11.828Z,0.00
2023-05-14T03:00:11.923Z,0.00
2023-05-14T03:01:12.109Z,0.00
2023-05-14T03:02:12.712Z,0.00
2023-05-14T03:03:12.269Z,0.00
2023-05-14T03:04:12.392Z,0.00
2023-05-14T03:05:12.602Z,0.00
2023-05-14T03:06:12.756Z,0.00
2023-05-14T03:07:12.791Z,0.00
2023-05-14T03:08:12.962Z,0.00
2023-05-14T03:09:13.011Z,0.00
2023-05-14T03:10:13.223Z,0.00
2023-05-14T03:11:13.274Z,0.00
2023-05-14T03:12:13.412Z,0.00
2023-05-14T03:13:13.606Z,0.00
2023-05-14T03:14:13.766Z,0.00
2023-05-14T03:15:13.917Z,0.00
2023-05-14T03:16:14.016Z,0.00
2023-05-14T03:17:14.129Z,0.00
2023-05-14T03:18:14.256Z,0.00
2023-05-14T03:19:14.492Z,0.00
2023-05-14T03:20:14.571Z,0.00
2023-05-14T03:21:14.699Z,0.00
2023-05-14T03:22:14.914Z,0.00
2023-05-14T03:23:14.913Z,0.00
2023-05-14T03:24:15.005Z,0.00
2023-05-14T03:25:15.130Z,0.00
2023-05-14T03:26:15.246Z,0.00
2023-05-14T03:27:15.368Z,0.00
2023-05-14T03:28:15.512Z,0.00
2023-05-14T03:29:15.627Z,0.00
2023-05-14T03:30:15.813Z,0.00
2023-05-14T03:31:15.925Z,0.00
2023-05-14T03:32:16.017Z,0.00
2023-05-14T03:33:16.190Z,0.00
2023-05-14T03:34:16.261Z,0.00
2023-05-14T03:35:16.451Z,0.00
2023-05-14T03:36:16.632Z,0.00
2023-05-14T03:37:16.653Z,0.00
2023-05-14T03:38:16.833Z,0.00
2023-05-14T03:39:17.061Z,0.00
2023-05-14T03:40:17.029Z,0.00
2023-05-14T03:41:17.149Z,0.00
2023-05-14T03:42:17.486Z,0.00
2023-05-14T03:43:17.367Z,0.00
2023-05-14T03:44:17.533Z,0.00
2023-05-14T03:45:17.668Z,5.62
2023-05-14T03:46:17.842Z,5.62
2023-05-14T03:47:17.983Z,5.62
2023-05-14T03:48:18.136Z,5.62
2023-05-14T03:49:18.282Z,5.62
2023-05-14T03:50:18.421Z,5.62
2023-05-14T03:51:18.553Z,5.62
2023-05-14T03:52:18.629Z,5.62
2023-05-14T03:53:18.881Z,5.62
2023-05-14T03:54:18.872Z,11.25
2023-05-14T03:55:19.064Z,11.25
2023-05-14T03:56:19.122Z,11.25
2023-05-14T03:57:19.288Z,11.25
2023-05-14T03:58:19.445Z,11.25
2023-05-14T03:59:19.570Z,11.25
2023-05-14T04:00:19.685Z,16.88
2023-05-14T04:01:19.783Z,16.88
2023-05-14T04:02:19.890Z,16.88
2023-05-14T04:03:20.136Z,16.88
2023-05-14T04:04:20.201Z,16.88
2023-05-14T04:05:20.222Z,16.88
2023-05-14T04:06:20.325Z,22.50
2023-05-14T04:07:20.545Z,22.50
2023-05-14T04:08:20.655Z,22.50
2023-05-14T04:09:20.774Z,22.50
2023-05-14T04:10:20.958Z,22.50
2023-05-14T04:11:20.975Z,28.12
2023-05-14T04:12:21.113Z,28.12
2023-05-14T04:13:21.284Z,28.12
2023-05-14T04:14:21.402Z,28.12
2023-05-14T04:15:22.037Z,33.75
2023-05-14T04:16:21.671Z,33.75
2023-05-14T04:17:21.775Z,33.75
2023-05-14T04:18:21.945Z,33.75
2023-05-14T04:19:22.425Z,33.75
2023-05-14T04:20:22.314Z,39.38
2023-05-14T04:21:22.307Z,39.38
2023-05-14T04:22:22.468Z,39.38
2023-05-14T04:23:22.590Z,39.38
2023-05-14T04:24:22.768Z,45.00
2023-05-14T04:25:22.892Z,45.00
2023-05-14T04:26:22.972Z,45.00
2023-05-14T04:27:23.096Z,45.00
2023-05-14T04:28:23.205Z,50.62
2023-05-14T04:29:23.368Z,50.62
2023-05-14T04:30:23.592Z,50.62
2023-05-14T04:31:23.847Z,50.62
2023-05-14T04:32:23.790Z,56.25
2023-05-14T04:33:23.870Z,56.25
2023-05-14T04:34:24.085Z,56.25
2023-05-14T04:35:25.205Z,56.25
2023-05-14T04:36:24.378Z,61.88
2023-05-14T04:37:24.366Z,61.88
2023-05-14T04:38:24.505Z,61.88
2023-05-14T04:39:24.664Z,61.88
2023-05-14T04:40:24.982Z,67.50
2023-05-14T04:41:24.933Z,67.50
2023-05-14T04:42:25.160Z,67.50
2023-05-14T04:43:25.152Z,73.12
2023-05-14T04:44:25.295Z,73.12
2023-05-14T04:45:25.370Z,73.12
2023-05-14T04:46:25.598Z,56.25
2023-05-14T04:47:25.698Z,78.75
2023-05-14T04:48:25.878Z,78.75
2023-05-14T04:49:25.968Z,78.75
2023-05-14T04:50:26.314Z,84.38
2023-05-14T04:51:26.166Z,84.38
2023-05-14T04:52:26.284Z,84.38
2023-05-14T04:53:26.418Z,84.38
2023-05-14T04:54:27.118Z,84.38
2023-05-14T04:55:26.700Z,84.38
2023-05-14T04:56:26.743Z,90.00
2023-05-14T04:57:26.953Z,90.00
2023-05-14T04:58:27.017Z,95.62
2023-05-14T04:59:27.124Z,95.62
2023-05-14T05:00:27.471Z,101.25
2023-05-14T05:01:27.525Z,101.25
2023-05-14T05:02:27.570Z,106.88
2023-05-14T05:03:27.748Z,112.50
2023-05-14T05:04:27.800Z,106.88
2023-05-14T05:05:27.939Z,112.50
2023-05-14T05:06:28.027Z,118.12
2023-05-14T05:07:28.165Z,123.75
2023-05-14T05:08:28.359Z,123.75
2023-05-14T05:09:28.437Z,123.75
2023-05-14T05:10:28.661Z,129.38
2023-05-14T05:11:28.709Z,135.00
2023-05-14T05:12:28.823Z,135.00
2023-05-14T05:13:29.139Z,135.00
2023-05-14T05:14:29.038Z,140.62
2023-05-14T05:15:29.210Z,140.62
2023-05-14T05:16:29.361Z,140.62
2023-05-14T05:17:29.487Z,140.62
2023-05-14T05:18:29.601Z,140.62
2023-05-14T05:19:42.477Z,135.00
2023-05-14T05:20:30.892Z,129.38
2023-05-14T05:21:30.006Z,123.75
2023-05-14T05:22:30.246Z,106.88
2023-05-14T05:23:30.247Z,118.12
2023-05-14T05:24:30.453Z,123.75
2023-05-14T05:25:30.541Z,135.00
2023-05-14T05:26:30.818Z,140.62
2023-05-14T05:27:30.770Z,146.25
2023-05-14T05:28:30.966Z,146.25
2023-05-14T05:29:31.124Z,151.88
2023-05-14T05:30:31.395Z,151.88
2023-05-14T05:31:31.403Z,163.12
2023-05-14T05:32:31.669Z,163.12
2023-05-14T05:33:31.704Z,168.75
2023-05-14T05:34:31.625Z,174.38
2023-05-14T05:35:31.801Z,180.00
2023-05-14T05:36:31.959Z,180.00
2023-05-14T05:37:32.029Z,180.00
2023-05-14T05:38:32.166Z,180.00
2023-05-14T05:39:32.232Z,180.00
2023-05-14T05:40:32.343Z,180.00
2023-05-14T05:41:32.438Z,185.62
2023-05-14T05:42:32.725Z,191.25
2023-05-14T05:43:32.754Z,202.50
2023-05-14T05:44:32.878Z,208.12
2023-05-14T05:45:32.946Z,208.12
2023-05-14T05:46:33.128Z,208.12
2023-05-14T05:47:33.180Z,213.75
2023-05-14T05:48:33.391Z,219.38
2023-05-14T05:49:33.456Z,219.38
2023-05-14T05:50:33.538Z,225.00
2023-05-14T05:51:33.730Z,225.00
2023-05-14T05:52:33.922Z,230.62
2023-05-14T05:53:33.931Z,236.25
2023-05-14T05:54:34.123Z,236.25
2023-05-14T05:55:34.200Z,241.88
2023-05-14T05:56:34.469Z,247.50
2023-05-14T05:57:34.539Z,253.12
2023-05-14T05:58:35.336Z,258.75
2023-05-14T05:59:34.827Z,264.38
2023-05-14T06:00:34.948Z,264.38
2023-05-14T06:01:35.048Z,264.38
2023-05-14T06:02:35.186Z,270.00
2023-05-14T06:03:35.337Z,270.00
2023-05-14T06:04:35.457Z,275.62
2023-05-14T06:05:35.780Z,281.25
2023-05-14T06:06:35.812Z,275.62
2023-05-14T06:07:35.797Z,275.62
2023-05-14T06:08:35.971Z,275.62
2023-05-14T06:09:36.003Z,292.50
2023-05-14T06:10:36.118Z,292.50
2023-05-14T06:11:36.289Z,298.12
2023-05-14T06:12:36.500Z,286.88
2023-05-14T06:13:36.538Z,286.88
2023-05-14T06:14:36.633Z,298.12
2023-05-14T06:15:36.895Z,303.75
2023-05-14T06:16:37.025Z,315.00
2023-05-14T06:17:37.105Z,303.75
2023-05-14T06:18:37.336Z,320.62
2023-05-14T06:19:37.295Z,320.62
2023-05-14T06:20:37.548Z,343.12
2023-05-14T06:21:37.536Z,343.12
2023-05-14T06:22:37.657Z,343.12
2023-05-14T06:23:37.787Z,331.88
2023-05-14T06:24:37.870Z,348.75
2023-05-14T06:25:38.052Z,388.12
2023-05-14T06:26:38.123Z,416.25
2023-05-14T06:27:38.267Z,360.00
2023-05-14T06:28:38.389Z,450.00
2023-05-14T06:29:38.526Z,466.88
2023-05-14T06:30:38.636Z,376.88
2023-05-14T06:31:38.776Z,315.00
2023-05-14T06:32:38.887Z,376.88
2023-05-14T06:33:39.018Z,444.38
2023-05-14T06:34:39.052Z,298.12
2023-05-14T06:35:39.157Z,360.00
2023-05-14T06:36:39.482Z,382.50
2023-05-14T06:37:39.457Z,427.50
2023-05-14T06:38:39.608Z,371.25
2023-05-14T06:39:39.728Z,365.62
2023-05-14T06:40:39.824Z,354.38
2023-05-14T06:41:39.979Z,382.50
2023-05-14T06:42:40.080Z,360.00
2023-05-14T06:43:40.202Z,360.00
2023-05-14T06:44:40.308Z,444.38
2023-05-14T06:45:40.446Z,405.00
2023-05-14T06:46:40.556Z,393.75
2023-05-14T06:47:40.715Z,376.88
2023-05-14T06:48:40.802Z,489.38
2023-05-14T06:49:40.919Z,427.50
2023-05-14T06:50:41.015Z,472.50
2023-05-14T06:51:41.202Z,466.88
2023-05-14T06:52:41.310Z,472.50
2023-05-14T06:53:41.441Z,489.38
2023-05-14T06:54:41.616Z,438.75
2023-05-14T06:55:41.717Z,410.62
2023-05-14T06:56:41.844Z,433.12
2023-05-14T06:57:42.037Z,551.25
2023-05-14T06:58:42.141Z,450.00
2023-05-14T06:59:42.204Z,421.88
2023-05-14T07:00:42.340Z,360.00
2023-05-14T07:01:42.450Z,410.62
2023-05-14T07:02:42.717Z,450.00
2023-05-14T07:03:42.678Z,388.12
2023-05-14T07:04:42.850Z,388.12
2023-05-14T07:05:42.914Z,399.38
2023-05-14T07:06:43.103Z,393.75
2023-05-14T07:07:43.142Z,433.12
2023-05-14T07:08:43.288Z,405.00
2023-05-14T07:09:43.365Z,405.00
2023-05-14T07:10:43.506Z,376.88
2023-05-14T07:11:43.631Z,416.25
2023-05-14T07:12:43.814Z,450.00
2023-05-14T07:13:43.913Z,444.38
2023-05-14T07:14:44.017Z,500.62
2023-05-14T07:15:44.128Z,500.62
2023-05-14T07:16:44.376Z,416.25
2023-05-14T07:17:44.424Z,450.00
2023-05-14T07:18:44.571Z,393.75
2023-05-14T07:19:44.575Z,376.88
2023-05-14T07:20:44.703Z,371.25
2023-05-14T07:21:44.823Z,382.50
2023-05-14T07:22:44.932Z,410.62
2023-05-14T07:23:45.066Z,478.12
2023-05-14T07:24:45.177Z,461.25
2023-05-14T07:25:45.296Z,438.75
2023-05-14T07:26:45.442Z,478.12
2023-05-14T07:27:45.602Z,517.50
2023-05-14T07:28:45.713Z,500.62
2023-05-14T07:29:45.766Z,534.38
2023-05-14T07:30:45.916Z,500.62
2023-05-14T07:31:46.149Z,585.00
2023-05-14T07:32:46.204Z,556.88
2023-05-14T07:33:46.316Z,500.62
2023-05-14T07:34:46.372Z,517.50
2023-05-14T07:35:46.504Z,517.50
2023-05-14T07:36:46.698Z,635.62
2023-05-14T07:37:46.829Z,624.38
2023-05-14T07:38:46.912Z,511.88
2023-05-14T07:39:47.042Z,551.25
2023-05-14T07:40:47.151Z,551.25
2023-05-14T07:41:47.301Z,545.62
2023-05-14T07:42:47.465Z,556.88
2023-05-14T07:43:47.539Z,528.75
2023-05-14T07:44:47.668Z,545.62
2023-05-14T07:45:47.891Z,573.75
2023-05-14T07:46:47.905Z,534.38
2023-05-14T07:47:48.179Z,506.25
2023-05-14T07:48:48.202Z,540.00
2023-05-14T07:49:48.364Z,511.88
2023-05-14T07:50:48.433Z,663.75
2023-05-14T07:51:48.515Z,810.00
2023-05-14T07:52:48.669Z,646.88
2023-05-14T07:53:48.774Z,618.75
2023-05-14T07:54:50.569Z,596.25
2023-05-14T07:55:49.051Z,523.12
2023-05-14T07:56:49.204Z,483.75
2023-05-14T07:57:49.309Z,540.00
2023-05-14T07:58:49.428Z,579.38
2023-05-14T07:59:49.541Z,500.62
2023-05-14T08:00:49.695Z,489.38
2023-05-14T08:01:49.906Z,500.62
2023-05-14T08:02:50.179Z,478.12
2023-05-14T08:03:50.195Z,472.50
2023-05-14T08:04:50.161Z,472.50
2023-05-14T08:05:50.273Z,607.50
2023-05-14T08:06:50.471Z,658.12
2023-05-14T08:07:50.535Z,607.50
2023-05-14T08:08:50.655Z,579.38
2023-05-14T08:09:50.784Z,540.00
2023-05-14T08:10:50.940Z,607.50
2023-05-14T08:11:50.974Z,568.12
2023-05-14T08:12:51.102Z,630.00
2023-05-14T08:13:51.220Z,596.25
2023-05-14T08:14:51.368Z,556.88
2023-05-14T08:15:51.539Z,601.88
2023-05-14T08:16:51.695Z,697.50
2023-05-14T08:17:51.866Z,888.75
2023-05-14T08:18:51.946Z,714.38
2023-05-14T08:19:52.054Z,686.25
2023-05-14T08:20:52.189Z,697.50
2023-05-14T08:21:52.261Z,658.12
2023-05-14T08:22:52.522Z,1074.38
2023-05-14T08:23:52.505Z,1867.50
2023-05-14T08:24:52.645Z,793.12
2023-05-14T08:25:52.800Z,1642.50
2023-05-14T08:26:52.882Z,905.62
2023-05-14T08:27:53.035Z,826.88
2023-05-14T08:28:53.153Z,1029.38
2023-05-14T08:29:53.283Z,725.62
2023-05-14T08:30:53.468Z,855.00
2023-05-14T08:31:53.528Z,877.50
2023-05-14T08:32:53.679Z,697.50
2023-05-14T08:33:53.823Z,928.12
2023-05-14T08:34:53.917Z,1096.88
2023-05-14T08:35:54.014Z,1029.38
2023-05-14T08:36:54.182Z,759.38
2023-05-14T08:37:54.298Z,731.25
2023-05-14T08:38:54.445Z,1102.50
2023-05-14T08:39:54.548Z,922.50
2023-05-14T08:40:54.628Z,900.00
2023-05-14T08:41:54.784Z,849.38
2023-05-14T08:42:54.934Z,691.88
2023-05-14T08:43:55.109Z,624.38
2023-05-14T08:44:55.160Z,680.62
2023-05-14T08:45:55.276Z,1023.75
2023-05-14T08:46:55.387Z,703.12
2023-05-14T08:47:55.787Z,1265.62
2023-05-14T08:48:55.681Z,810.00
2023-05-14T08:49:55.802Z,793.12
2023-05-14T08:50:55.936Z,759.38
2023-05-14T08:51:56.022Z,855.00
2023-05-14T08:52:56.184Z,945.00
2023-05-14T08:53:56.296Z,1445.62
2023-05-14T08:54:56.365Z,1631.25
2023-05-14T08:55:56.589Z,1901.25
2023-05-14T08:56:56.772Z,894.38
2023-05-14T08:57:56.778Z,1485.00
2023-05-14T08:58:56.924Z,708.75
2023-05-14T08:59:57.052Z,793.12
2023-05-14T09:00:57.199Z,776.25
2023-05-14T09:01:57.276Z,781.88
2023-05-14T09:02:57.464Z,1046.25
2023-05-14T09:03:57.570Z,1833.75
2023-05-14T09:04:57.683Z,1108.12
2023-05-14T09:05:59.973Z,1091.25
2023-05-14T09:06:57.924Z,961.88
2023-05-14T09:07:58.076Z,1136.25
2023-05-14T09:08:58.207Z,911.25
2023-05-14T09:09:58.338Z,793.12
2023-05-14T09:10:58.472Z,900.00
2023-05-14T09:11:58.540Z,1721.25
2023-05-14T09:12:58.708Z,776.25
2023-05-14T09:13:58.894Z,1001.25
2023-05-14T09:14:59.013Z,1006.88
2023-05-14T09:15:59.150Z,1063.12
2023-05-14T09:16:59.394Z,1839.38
2023-05-14T09:17:59.373Z,928.12
2023-05-14T09:18:59.518Z,1715.62
2023-05-14T09:19:59.664Z,1063.12
2023-05-14T09:20:59.733Z,1940.62
2023-05-14T09:21:59.947Z,849.38
2023-05-14T09:22:59.971Z,900.00
2023-05-14T09:24:00.161Z,1597.50
2023-05-14T09:25:00.276Z,2306.25
2023-05-14T09:26:00.381Z,2334.38
2023-05-14T09:27:00.510Z,2396.25
2023-05-14T09:28:00.674Z,1676.25
2023-05-14T09:29:00.774Z,1029.38
2023-05-14T09:30:00.892Z,1816.88
2023-05-14T09:31:01.005Z,2396.25
2023-05-14T09:32:01.135Z,2401.88
2023-05-14T09:33:01.299Z,1260.00
2023-05-14T09:34:01.384Z,1102.50
2023-05-14T09:35:01.516Z,2497.50
2023-05-14T09:36:01.655Z,1248.75
2023-05-14T09:37:01.850Z,1271.25
2023-05-14T09:38:01.968Z,2514.38
2023-05-14T09:39:02.027Z,2458.12
2023-05-14T09:40:02.129Z,2019.38
2023-05-14T09:41:02.284Z,2548.12
2023-05-14T09:42:02.370Z,2508.75
2023-05-14T09:43:02.500Z,2491.88
2023-05-14T09:44:04.160Z,2486.25
2023-05-14T09:45:02.752Z,2486.25
2023-05-14T09:46:02.889Z,2525.62
2023-05-14T09:47:03.306Z,2480.62
2023-05-14T09:48:03.370Z,2525.62
2023-05-14T09:49:03.214Z,2441.25
2023-05-14T09:50:03.337Z,2660.62
2023-05-14T09:51:04.749Z,2745.00
2023-05-14T09:52:03.658Z,2688.75
2023-05-14T09:53:03.725Z,2598.75
2023-05-14T09:54:03.901Z,2655.00
2023-05-14T09:55:04.008Z,2750.62
2023-05-14T09:56:04.185Z,2520.00
2023-05-14T09:57:04.288Z,2418.75
2023-05-14T09:58:04.420Z,2761.88
2023-05-14T09:59:04.561Z,2750.62
2023-05-14T10:00:04.670Z,2761.88
2023-05-14T10:01:04.907Z,2486.25
2023-05-14T10:02:04.937Z,2041.88
2023-05-14T10:03:05.156Z,2655.00
2023-05-14T10:04:05.251Z,2638.12
2023-05-14T10:05:05.338Z,2919.38
2023-05-14T10:06:05.488Z,1350.00
2023-05-14T10:07:05.585Z,1175.62
2023-05-14T10:08:05.766Z,1153.12
2023-05-14T10:09:05.850Z,1777.50
2023-05-14T10:10:05.972Z,1923.75
2023-05-14T10:11:06.183Z,1434.38
2023-05-14T10:12:06.221Z,1080.00
2023-05-14T10:13:06.342Z,2711.25
2023-05-14T10:14:06.571Z,1068.75
2023-05-14T10:15:06.598Z,2182.50
2023-05-14T10:16:06.763Z,2441.25
2023-05-14T10:17:06.879Z,1136.25
2023-05-14T10:18:06.989Z,1074.38
2023-05-14T10:19:07.280Z,1186.88
2023-05-14T10:20:07.214Z,933.75
2023-05-14T10:21:07.328Z,2407.50
2023-05-14T10:22:07.510Z,2070.00
2023-05-14T10:23:07.554Z,1254.38
2023-05-14T10:24:07.700Z,2317.50
2023-05-14T10:25:07.810Z,2306.25
2023-05-14T10:26:07.912Z,2244.38
2023-05-14T10:27:08.091Z,2250.00
2023-05-14T10:28:08.168Z,2255.62
2023-05-14T10:29:08.324Z,2182.50
2023-05-14T10:30:08.435Z,2081.25
2023-05-14T10:31:08.680Z,759.38
2023-05-14T10:32:08.741Z,630.00
2023-05-14T10:33:08.963Z,2171.25
2023-05-14T10:34:08.975Z,2283.75
2023-05-14T10:35:09.074Z,1485.00
2023-05-14T10:36:09.202Z,2058.75
2023-05-14T10:37:09.321Z,2030.62
2023-05-14T10:38:09.456Z,2115.00
2023-05-14T10:39:09.548Z,2115.00
2023-05-14T10:40:09.652Z,2171.25
2023-05-14T10:41:09.752Z,2199.38
2023-05-14T10:42:09.887Z,2182.50
2023-05-14T10:43:10.061Z,2131.88
2023-05-14T10:44:10.193Z,2120.62
2023-05-14T10:45:10.269Z,1918.12
2023-05-14T10:46:10.441Z,2081.25
2023-05-14T10:47:10.552Z,2205.00
2023-05-14T10:48:10.684Z,2109.38
2023-05-14T10:49:10.744Z,2199.38
2023-05-14T10:50:10.923Z,1479.38
2023-05-14T10:51:11.091Z,2233.12
2023-05-14T10:52:11.153Z,1833.75
2023-05-14T10:53:11.284Z,2143.12
2023-05-14T10:54:11.404Z,2002.50
2023-05-14T10:55:11.494Z,1248.75
2023-05-14T10:56:11.614Z,1991.25
2023-05-14T10:57:11.690Z,2126.25
2023-05-14T10:58:11.821Z,2081.25
2023-05-14T10:59:11.865Z,2115.00
2023-05-14T11:00:11.995Z,2126.25
2023-05-14T11:01:12.199Z,2131.88
2023-05-14T11:02:12.277Z,2148.75
2023-05-14T11:03:12.607Z,2176.88
2023-05-14T11:04:12.627Z,2160.00
2023-05-14T11:05:12.636Z,2176.88
2023-05-14T11:06:12.746Z,2137.50
2023-05-14T11:07:12.914Z,2154.38
2023-05-14T11:08:13.011Z,2115.00
2023-05-14T11:09:13.115Z,2081.25
2023-05-14T11:10:13.248Z,2126.25
2023-05-14T11:11:13.955Z,2137.50
2023-05-14T11:12:13.473Z,2165.62
2023-05-14T11:13:13.587Z,2148.75
2023-05-14T11:14:13.677Z,2047.50
2023-05-14T11:15:13.783Z,2070.00
2023-05-14T11:16:22.712Z,2081.25
2023-05-14T11:17:15.127Z,2081.25
2023-05-14T11:18:14.379Z,2115.00
2023-05-14T11:19:14.310Z,1991.25
2023-05-14T11:20:14.397Z,1766.25
2023-05-14T11:21:14.522Z,1923.75
2023-05-14T11:22:14.627Z,1946.25
2023-05-14T11:23:14.773Z,1912.50
2023-05-14T11:24:14.835Z,1822.50
2023-05-14T11:25:15.216Z,1856.25
2023-05-14T11:26:15.124Z,1890.00
2023-05-14T11:27:15.185Z,1901.25
2023-05-14T11:28:15.381Z,1850.62
2023-05-14T11:29:15.485Z,1794.38
2023-05-14T11:30:15.649Z,1856.25
2023-05-14T11:31:15.827Z,1811.25
2023-05-14T11:32:15.854Z,1676.25
2023-05-14T11:33:16.122Z,1299.38
2023-05-14T11:34:16.090Z,1344.38
2023-05-14T11:35:16.199Z,1203.75
2023-05-14T11:36:16.404Z,1231.88
2023-05-14T11:37:16.449Z,1282.50
2023-05-14T11:38:16.544Z,1271.25
2023-05-14T11:39:16.761Z,1344.38
2023-05-14T11:40:17.013Z,1333.12
2023-05-14T11:41:17.003Z,1361.25
2023-05-14T11:42:17.193Z,1321.88
2023-05-14T11:43:17.311Z,1226.25
2023-05-14T11:44:17.366Z,1473.75
2023-05-14T11:45:17.505Z,1580.62
2023-05-14T11:46:17.680Z,1597.50
2023-05-14T11:47:17.760Z,1170.00
2023-05-14T11:48:17.883Z,995.62
2023-05-14T11:49:17.956Z,950.62
2023-05-14T11:50:18.053Z,956.25
2023-05-14T11:51:18.200Z,810.00
2023-05-14T11:52:18.311Z,770.62
2023-05-14T11:53:18.478Z,922.50
2023-05-14T11:54:18.513Z,911.25
2023-05-14T11:55:18.642Z,911.25
2023-05-14T11:56:18.751Z,916.88
2023-05-14T11:57:18.846Z,1012.50
2023-05-14T11:58:18.999Z,978.75
2023-05-14T11:59:20.624Z,922.50
2023-05-14T12:00:19.320Z,894.38
2023-05-14T12:01:19.382Z,933.75
2023-05-14T12:02:19.569Z,956.25
2023-05-14T12:03:19.840Z,961.88
2023-05-14T12:04:19.844Z,1006.88
2023-05-14T12:05:19.973Z,1057.50
2023-05-14T12:06:20.028Z,984.38
2023-05-14T12:07:20.147Z,967.50
2023-05-14T12:08:20.269Z,1001.25
2023-05-14T12:09:20.411Z,1181.25
2023-05-14T12:10:20.539Z,1333.12
2023-05-14T12:11:20.706Z,1310.62
2023-05-14T12:12:20.750Z,1226.25
2023-05-14T12:13:20.849Z,1153.12
2023-05-14T12:14:20.969Z,978.75
2023-05-14T12:15:21.088Z,1018.12
2023-05-14T12:16:21.262Z,1040.62
2023-05-14T12:17:21.435Z,1006.88
2023-05-14T12:18:25.073Z,1080.00
2023-05-14T12:19:21.630Z,1153.12
2023-05-14T12:20:21.869Z,1265.62
2023-05-14T12:21:21.892Z,1507.50
2023-05-14T12:22:21.999Z,2030.62
2023-05-14T12:23:22.175Z,2368.12
2023-05-14T12:24:22.198Z,2278.12
2023-05-14T12:25:22.308Z,2716.88
2023-05-14T12:26:22.591Z,3060.00
2023-05-14T12:27:22.541Z,2548.12
2023-05-14T12:28:22.662Z,2278.12
2023-05-14T12:29:22.766Z,1681.88
2023-05-14T12:30:22.939Z,1513.12
2023-05-14T12:31:23.114Z,1693.12
2023-05-14T12:32:23.223Z,1423.12
2023-05-14T12:33:23.254Z,1293.75
2023-05-14T12:34:23.399Z,1153.12
2023-05-14T12:35:23.858Z,1203.75
2023-05-14T12:36:23.641Z,1029.38
2023-05-14T12:37:23.750Z,1226.25
2023-05-14T12:38:23.848Z,1305.00
2023-05-14T12:39:24.018Z,1248.75
2023-05-14T12:40:24.471Z,1378.12